Terminal Aerodrome Forecast
Issued by NWS

Home | Current Version | Previous Version | Text Only | Print | Product List | Glossary On
Versions: 1 2 3 4 5 6 7 8 9 10 11 12 13 14 15 16 17 18
000
FTUS45 KSLC 290549
TAFBCE
TAF
KBCE 290549Z 2906/3006 02008KT P6SM SCT070 BKN100
     FM290800 VRB05KT P6SM SCT080 BKN100
     FM291600 16010G18KT P6SM VCSH SCT050 BKN070
     FM300200 29010KT P6SM VCSH SCT070 BKN080=

USA.gov is the U.S. government's official web portal to all federal, state and local government web resources and services.